Elizabeth Mc Allister — WDB7652 — position and weather

sailwx.info

Track history (hours):
 
Tides and Currents Weather Stations Pressure Air Temp Water Temp Dewpoint Dewpoint Depression Visibility Wind Speed Wind Dir Waves Ship Positions

Elizabeth Mc Allister

Owner: MC ALLISTER TOWING & TRANSPORTATION INC, NEW YORK, NY. More information available from US FCC via Universal Licensing System and Coast Guard Vessel Documentation Center.

Last reported at 2014-Dec-19 08:33 UTC. Time now 2014-Dec-19 09:26 UTC.
Position N 40°38' W 074°10'.

Length 31 m.

Type: Tug. MMSI: 366945680.

Date/timePositionNaut miles runAvg speedWind from/ knotsBaromVisibWave heightAir tempDewpointWater temp
2014-Dec-19 08:33N 40°38' W 074°10'0 0.0
2014-Dec-19 07:32N 40°38' W 074°10'0 0.0
2014-Dec-19 06:25N 40°38' W 074°10'0 0.0
2014-Dec-19 05:29N 40°38' W 074°10'0 0.0
2014-Dec-19 04:29N 40°38' W 074°10'0 0.0
2014-Dec-19 03:26N 40°38' W 074°10'0 0.0
2014-Dec-19 02:32N 40°38' W 074°10'0 0.0
2014-Dec-19 01:23N 40°38' W 074°10'0 0.0
2014-Dec-19 00:33N 40°38' W 074°10'3 2.6
2014-Dec-18 23:21N 40°36' W 074°12'4 4.6
2014-Dec-18 22:33N 40°39' W 074°09'2 1.6
2014-Dec-18 21:33N 40°40' W 074°08'2 2.0
2014-Dec-18 20:33N 40°38' W 074°10'0 0.1
2014-Dec-18 19:33N 40°38' W 074°10'0 0.0
2014-Dec-18 18:33N 40°38' W 074°10'0 0.0
2014-Dec-18 17:33N 40°38' W 074°10'0 0.0
2014-Dec-18 16:33N 40°38' W 074°10'0 0.0
2014-Dec-18 15:33N 40°38' W 074°10'0 0.0
2014-Dec-18 14:33N 40°38' W 074°10'0 0.0
2014-Dec-18 13:33N 40°38' W 074°10'0 0.0
2014-Dec-18 12:33N 40°38' W 074°10'0 0.0
2014-Dec-18 11:33N 40°38' W 074°10'0 0.0
2014-Dec-18 10:33N 40°38' W 074°10'0 0.0
2014-Dec-18 09:33N 40°38' W 074°10'0 0.0
2014-Dec-18 08:33N 40°38' W 074°10'0 0.0
2014-Dec-18 07:33N 40°38' W 074°10'0 0.0
2014-Dec-18 06:30N 40°38' W 074°10'4 4.2
2014-Dec-18 05:31N 40°35' W 074°13'4 1.5
2014-Dec-18 02:33N 40°31' W 074°15'3 1.2
2014-Dec-18 00:23N 40°34' W 074°14'3 1.0
2014-Dec-17 21:21N 40°36' W 074°12'3 1.4
2014-Dec-17 19:22N 40°33' W 074°14'3 3.6
2014-Dec-17 18:28N 40°37' W 074°12'3 2.9
2014-Dec-17 17:33N 40°38' W 074°10'0 0.0
2014-Dec-17 16:33N 40°38' W 074°10'0 0.0
2014-Dec-17 15:33N 40°38' W 074°10'0 0.0
2014-Dec-17 14:33N 40°38' W 074°10'0 0.0
2014-Dec-17 13:33N 40°38' W 074°10'0 0.0
2014-Dec-17 12:33N 40°38' W 074°10'0 0.0
2014-Dec-17 11:33N 40°38' W 074°10'0 0.0
2014-Dec-17 10:33N 40°38' W 074°10'0 0.0
2014-Dec-17 09:33N 40°38' W 074°10'0 0.0
2014-Dec-17 08:33N 40°38' W 074°10'0 0.0
2014-Dec-17 07:33N 40°38' W 074°10'0 0.0
2014-Dec-17 06:33N 40°38' W 074°10'0 0.0
2014-Dec-17 05:33N 40°38' W 074°10'0 0.0
2014-Dec-17 04:33N 40°38' W 074°10'0 0.0
2014-Dec-17 03:33N 40°38' W 074°10'0 0.0
2014-Dec-17 02:33N 40°38' W 074°10'0 0.0
2014-Dec-17 01:33N 40°38' W 074°10'0 0.0
2014-Dec-17 00:33N 40°38' W 074°10'0 0.0
2014-Dec-16 23:33N 40°38' W 074°10'7 6.6
2014-Dec-16 22:33N 40°41' W 074°02'3 3.0
2014-Dec-16 21:33N 40°42' W 073°58'0 0.0
2014-Dec-16 20:33N 40°42' W 073°58'5 4.7
2014-Dec-16 19:33N 40°39' W 074°03'5 5.2
2014-Dec-16 18:33N 40°38' W 074°10'0 0.0
2014-Dec-16 17:33N 40°38' W 074°10'2 2.5
2014-Dec-16 16:33N 40°41' W 074°09'2 1.7
2014-Dec-16 15:33N 40°39' W 074°09'1 1.4
2014-Dec-16 14:33N 40°39' W 074°07'2 2.1
2014-Dec-16 13:33N 40°38' W 074°10'0 0.0
2014-Dec-16 12:33N 40°38' W 074°10'0 0.0
2014-Dec-16 11:33N 40°38' W 074°10'0 0.0
2014-Dec-16 10:33N 40°38' W 074°10'0 0.0
2014-Dec-16 09:33N 40°38' W 074°10'0 0.0
2014-Dec-16 08:23N 40°38' W 074°10'0 0.0
2014-Dec-16 07:33N 40°38' W 074°10'0 0.0
2014-Dec-16 06:33N 40°38' W 074°10'0 0.0
2014-Dec-16 05:33N 40°38' W 074°10'0 0.0
2014-Dec-16 04:33N 40°38' W 074°10'0 0.0
2014-Dec-16 03:32N 40°38' W 074°10'0 0.0
2014-Dec-16 02:33N 40°38' W 074°10'0 0.0
2014-Dec-16 01:22N 40°38' W 074°10'0 0.0
2014-Dec-15 23:31N 40°38' W 074°10'0 0.0
2014-Dec-15 22:34N 40°38' W 074°10'0 0.0
2014-Dec-15 21:32N 40°38' W 074°10'0 0.0
2014-Dec-15 20:33N 40°38' W 074°10'1 1.4
2014-Dec-15 19:32N 40°39' W 074°08'2 1.1
2014-Dec-15 17:32N 40°41' W 074°08'3 2.9
2014-Dec-15 16:33N 40°38' W 074°10'0 0.0
2014-Dec-15 15:33N 40°38' W 074°10'0 0.0
2014-Dec-15 14:33N 40°38' W 074°10'2 2.0
2014-Dec-15 13:33N 40°40' W 074°08'1 1.3
2014-Dec-15 12:33N 40°39' W 074°09'4 4.5
2014-Dec-15 11:33N 40°38' W 074°03'5 5.1
2014-Dec-15 10:33N 40°38' W 074°10'0 0.0
2014-Dec-15 09:33N 40°38' W 074°10'0 0.0
2014-Dec-15 08:33N 40°38' W 074°10'0 0.0
2014-Dec-15 07:33N 40°38' W 074°10'0 0.0
2014-Dec-15 06:33N 40°38' W 074°10'0 0.0
2014-Dec-15 05:33N 40°38' W 074°10'0 0.0
2014-Dec-15 04:33N 40°38' W 074°10'0 0.0
2014-Dec-15 03:33N 40°38' W 074°10'0 0.0
2014-Dec-15 02:33N 40°38' W 074°10'0 0.0
2014-Dec-15 01:32N 40°38' W 074°10'0 0.0
2014-Dec-15 00:33N 40°38' W 074°10'0 0.0
2014-Dec-14 23:33N 40°38' W 074°10'1 1.5
2014-Dec-14 22:33N 40°40' W 074°09'2 2.1
2014-Dec-14 21:32N 40°42' W 074°09'1 1.2
2014-Dec-14 20:33N 40°41' W 074°08'2 2.1
2014-Dec-14 19:33N 40°39' W 074°07'2 1.9
2014-Dec-14 18:33N 40°40' W 074°05'2 1.9
2014-Dec-14 17:33N 40°39' W 074°03'9 8.0
2014-Dec-14 16:25N 40°30' W 074°03'2 2.8
2014-Dec-14 15:32N 40°27' W 074°03'0 0.1
2014-Dec-14 14:18N 40°27' W 074°03'0 0.0
2014-Dec-14 12:22N 40°27' W 074°03'0 0.0
2014-Dec-13 23:20N 40°27' W 074°03'0 0.0
2014-Dec-13 22:31N 40°27' W 074°03'0 0.0
2014-Dec-13 19:15N 40°27' W 074°03'0 0.0
2014-Dec-13 17:08N 40°27' W 074°03'0 0.0
2014-Dec-13 03:19N 40°27' W 074°03'0 0.0
2014-Dec-12 21:07N 40°27' W 074°03'0 0.0
2014-Dec-12 18:03N 40°27' W 074°03'0 0.0
2014-Dec-12 17:29N 40°27' W 074°03'0 0.0
2014-Dec-12 16:20N 40°27' W 074°03'0 0.0
2014-Dec-12 06:06N 40°27' W 074°03'0 0.0
2014-Dec-12 05:25N 40°27' W 074°03'0 0.0
2014-Dec-12 03:26N 40°27' W 074°03'0 0.0
2014-Dec-12 02:19N 40°27' W 074°03'0 0.0
2014-Dec-12 00:31N 40°27' W 074°03'0 0.0
2014-Dec-11 23:19N 40°27' W 074°03'0 0.0
2014-Dec-11 22:26N 40°27' W 074°03'0 0.0
2014-Dec-11 21:21N 40°27' W 074°03'0 0.0
2014-Dec-11 20:32N 40°27' W 074°03'0 0.0
2014-Dec-11 19:22N 40°27' W 074°03'0 0.0
2014-Dec-11 18:22N 40°27' W 074°03'0 0.0
2014-Dec-11 17:28N 40°27' W 074°03'0 0.0
2014-Dec-11 15:20N 40°27' W 074°03'0 0.0
2014-Dec-11 14:17N 40°27' W 074°03'0 0.0
2014-Dec-11 05:20N 40°27' W 074°03'0 0.0
2014-Dec-11 04:21N 40°27' W 074°03'0 0.0
2014-Dec-11 03:06N 40°27' W 074°03'0 0.0
2014-Dec-11 00:19N 40°27' W 074°03'0 0.0
2014-Dec-10 22:23N 40°27' W 074°03'0 0.0
2014-Dec-10 20:09N 40°27' W 074°03'0 0.0
2014-Dec-10 19:17N 40°27' W 074°03'0 0.0
2014-Dec-10 02:33N 40°27' W 074°03'0 0.0
2014-Dec-09 16:21N 40°27' W 074°03'0 0.0
2014-Dec-09 15:08N 40°27' W 074°03'0 0.0
2014-Dec-09 13:21N 40°27' W 074°03'0 0.0
2014-Dec-09 12:28N 40°27' W 074°03'  
Track history (hours):
 
Tides and Currents Weather Stations Pressure Air Temp Water Temp Dewpoint Dewpoint Depression Visibility Wind Speed Wind Dir Waves Ship Positions

Elizabeth Mc Allister

Owner: MC ALLISTER TOWING & TRANSPORTATION INC, NEW YORK, NY. More information available from US FCC via Universal Licensing System and Coast Guard Vessel Documentation Center.

Last reported at 2014-Dec-19 08:33 UTC. Time now 2014-Dec-19 09:26 UTC.
Position N 40°38' W 074°10'.

Length 31 m.

Type: Tug. MMSI: 366945680.

Date/timePositionNaut miles runAvg speedWind from/ knotsBaromVisibWave heightAir tempDewpointWater temp
2014-Dec-19 08:33N 40°38' W 074°10'0 0.0
2014-Dec-19 07:32N 40°38' W 074°10'0 0.0
2014-Dec-19 06:25N 40°38' W 074°10'0 0.0
2014-Dec-19 05:29N 40°38' W 074°10'0 0.0
2014-Dec-19 04:29N 40°38' W 074°10'0 0.0
2014-Dec-19 03:26N 40°38' W 074°10'0 0.0
2014-Dec-19 02:32N 40°38' W 074°10'0 0.0
2014-Dec-19 01:23N 40°38' W 074°10'0 0.0
2014-Dec-19 00:33N 40°38' W 074°10'3 2.6
2014-Dec-18 23:21N 40°36' W 074°12'4 4.6
2014-Dec-18 22:33N 40°39' W 074°09'2 1.6
2014-Dec-18 21:33N 40°40' W 074°08'2 2.0
2014-Dec-18 20:33N 40°38' W 074°10'0 0.1
2014-Dec-18 19:33N 40°38' W 074°10'0 0.0
2014-Dec-18 18:33N 40°38' W 074°10'0 0.0
2014-Dec-18 17:33N 40°38' W 074°10'0 0.0
2014-Dec-18 16:33N 40°38' W 074°10'0 0.0
2014-Dec-18 15:33N 40°38' W 074°10'0 0.0
2014-Dec-18 14:33N 40°38' W 074°10'0 0.0
2014-Dec-18 13:33N 40°38' W 074°10'0 0.0
2014-Dec-18 12:33N 40°38' W 074°10'0 0.0
2014-Dec-18 11:33N 40°38' W 074°10'0 0.0
2014-Dec-18 10:33N 40°38' W 074°10'0 0.0
2014-Dec-18 09:33N 40°38' W 074°10'0 0.0
2014-Dec-18 08:33N 40°38' W 074°10'0 0.0
2014-Dec-18 07:33N 40°38' W 074°10'0 0.0
2014-Dec-18 06:30N 40°38' W 074°10'4 4.2
2014-Dec-18 05:31N 40°35' W 074°13'4 1.5
2014-Dec-18 02:33N 40°31' W 074°15'3 1.2
2014-Dec-18 00:23N 40°34' W 074°14'3 1.0
2014-Dec-17 21:21N 40°36' W 074°12'3 1.4
2014-Dec-17 19:22N 40°33' W 074°14'3 3.6
2014-Dec-17 18:28N 40°37' W 074°12'3 2.9
2014-Dec-17 17:33N 40°38' W 074°10'0 0.0
2014-Dec-17 16:33N 40°38' W 074°10'0 0.0
2014-Dec-17 15:33N 40°38' W 074°10'0 0.0
2014-Dec-17 14:33N 40°38' W 074°10'0 0.0
2014-Dec-17 13:33N 40°38' W 074°10'0 0.0
2014-Dec-17 12:33N 40°38' W 074°10'0 0.0
2014-Dec-17 11:33N 40°38' W 074°10'0 0.0
2014-Dec-17 10:33N 40°38' W 074°10'0 0.0
2014-Dec-17 09:33N 40°38' W 074°10'0 0.0
2014-Dec-17 08:33N 40°38' W 074°10'0 0.0
2014-Dec-17 07:33N 40°38' W 074°10'0 0.0
2014-Dec-17 06:33N 40°38' W 074°10'0 0.0
2014-Dec-17 05:33N 40°38' W 074°10'0 0.0
2014-Dec-17 04:33N 40°38' W 074°10'0 0.0
2014-Dec-17 03:33N 40°38' W 074°10'0 0.0
2014-Dec-17 02:33N 40°38' W 074°10'0 0.0
2014-Dec-17 01:33N 40°38' W 074°10'0 0.0
2014-Dec-17 00:33N 40°38' W 074°10'0 0.0
2014-Dec-16 23:33N 40°38' W 074°10'7 6.6
2014-Dec-16 22:33N 40°41' W 074°02'3 3.0
2014-Dec-16 21:33N 40°42' W 073°58'0 0.0
2014-Dec-16 20:33N 40°42' W 073°58'5 4.7
2014-Dec-16 19:33N 40°39' W 074°03'5 5.2
2014-Dec-16 18:33N 40°38' W 074°10'0 0.0
2014-Dec-16 17:33N 40°38' W 074°10'2 2.5
2014-Dec-16 16:33N 40°41' W 074°09'2 1.7
2014-Dec-16 15:33N 40°39' W 074°09'1 1.4
2014-Dec-16 14:33N 40°39' W 074°07'2 2.1
2014-Dec-16 13:33N 40°38' W 074°10'0 0.0
2014-Dec-16 12:33N 40°38' W 074°10'0 0.0
2014-Dec-16 11:33N 40°38' W 074°10'0 0.0
2014-Dec-16 10:33N 40°38' W 074°10'0 0.0
2014-Dec-16 09:33N 40°38' W 074°10'0 0.0
2014-Dec-16 08:23N 40°38' W 074°10'0 0.0
2014-Dec-16 07:33N 40°38' W 074°10'0 0.0
2014-Dec-16 06:33N 40°38' W 074°10'0 0.0
2014-Dec-16 05:33N 40°38' W 074°10'0 0.0
2014-Dec-16 04:33N 40°38' W 074°10'0 0.0
2014-Dec-16 03:32N 40°38' W 074°10'0 0.0
2014-Dec-16 02:33N 40°38' W 074°10'0 0.0
2014-Dec-16 01:22N 40°38' W 074°10'0 0.0
2014-Dec-15 23:31N 40°38' W 074°10'0 0.0
2014-Dec-15 22:34N 40°38' W 074°10'0 0.0
2014-Dec-15 21:32N 40°38' W 074°10'0 0.0
2014-Dec-15 20:33N 40°38' W 074°10'1 1.4
2014-Dec-15 19:32N 40°39' W 074°08'2 1.1
2014-Dec-15 17:32N 40°41' W 074°08'3 2.9
2014-Dec-15 16:33N 40°38' W 074°10'0 0.0
2014-Dec-15 15:33N 40°38' W 074°10'0 0.0
2014-Dec-15 14:33N 40°38' W 074°10'2 2.0
2014-Dec-15 13:33N 40°40' W 074°08'1 1.3
2014-Dec-15 12:33N 40°39' W 074°09'4 4.5
2014-Dec-15 11:33N 40°38' W 074°03'5 5.1
2014-Dec-15 10:33N 40°38' W 074°10'0 0.0
2014-Dec-15 09:33N 40°38' W 074°10'0 0.0
2014-Dec-15 08:33N 40°38' W 074°10'0 0.0
2014-Dec-15 07:33N 40°38' W 074°10'0 0.0
2014-Dec-15 06:33N 40°38' W 074°10'0 0.0
2014-Dec-15 05:33N 40°38' W 074°10'0 0.0
2014-Dec-15 04:33N 40°38' W 074°10'0 0.0
2014-Dec-15 03:33N 40°38' W 074°10'0 0.0
2014-Dec-15 02:33N 40°38' W 074°10'0 0.0
2014-Dec-15 01:32N 40°38' W 074°10'0 0.0
2014-Dec-15 00:33N 40°38' W 074°10'0 0.0
2014-Dec-14 23:33N 40°38' W 074°10'1 1.5
2014-Dec-14 22:33N 40°40' W 074°09'2 2.1
2014-Dec-14 21:32N 40°42' W 074°09'1 1.2
2014-Dec-14 20:33N 40°41' W 074°08'2 2.1
2014-Dec-14 19:33N 40°39' W 074°07'2 1.9
2014-Dec-14 18:33N 40°40' W 074°05'2 1.9
2014-Dec-14 17:33N 40°39' W 074°03'9 8.0
2014-Dec-14 16:25N 40°30' W 074°03'2 2.8
2014-Dec-14 15:32N 40°27' W 074°03'0 0.1
2014-Dec-14 14:18N 40°27' W 074°03'0 0.0
2014-Dec-14 12:22N 40°27' W 074°03'0 0.0
2014-Dec-13 23:20N 40°27' W 074°03'0 0.0
2014-Dec-13 22:31N 40°27' W 074°03'0 0.0
2014-Dec-13 19:15N 40°27' W 074°03'0 0.0
2014-Dec-13 17:08N 40°27' W 074°03'0 0.0
2014-Dec-13 03:19N 40°27' W 074°03'0 0.0
2014-Dec-12 21:07N 40°27' W 074°03'0 0.0
2014-Dec-12 18:03N 40°27' W 074°03'0 0.0
2014-Dec-12 17:29N 40°27' W 074°03'0 0.0
2014-Dec-12 16:20N 40°27' W 074°03'0 0.0
2014-Dec-12 06:06N 40°27' W 074°03'0 0.0
2014-Dec-12 05:25N 40°27' W 074°03'0 0.0
2014-Dec-12 03:26N 40°27' W 074°03'0 0.0
2014-Dec-12 02:19N 40°27' W 074°03'0 0.0
2014-Dec-12 00:31N 40°27' W 074°03'0 0.0
2014-Dec-11 23:19N 40°27' W 074°03'0 0.0
2014-Dec-11 22:26N 40°27' W 074°03'0 0.0
2014-Dec-11 21:21N 40°27' W 074°03'0 0.0
2014-Dec-11 20:32N 40°27' W 074°03'0 0.0
2014-Dec-11 19:22N 40°27' W 074°03'0 0.0
2014-Dec-11 18:22N 40°27' W 074°03'0 0.0
2014-Dec-11 17:28N 40°27' W 074°03'0 0.0
2014-Dec-11 15:20N 40°27' W 074°03'0 0.0
2014-Dec-11 14:17N 40°27' W 074°03'0 0.0
2014-Dec-11 05:20N 40°27' W 074°03'0 0.0
2014-Dec-11 04:21N 40°27' W 074°03'0 0.0
2014-Dec-11 03:06N 40°27' W 074°03'0 0.0
2014-Dec-11 00:19N 40°27' W 074°03'0 0.0
2014-Dec-10 22:23N 40°27' W 074°03'0 0.0
2014-Dec-10 20:09N 40°27' W 074°03'0 0.0
2014-Dec-10 19:17N 40°27' W 074°03'0 0.0
2014-Dec-10 02:33N 40°27' W 074°03'0 0.0
2014-Dec-09 16:21N 40°27' W 074°03'0 0.0
2014-Dec-09 15:08N 40°27' W 074°03'0 0.0
2014-Dec-09 13:21N 40°27' W 074°03'0 0.0
2014-Dec-09 12:28N 40°27' W 074°03'  

Dump ship's entire track history